Aérodrome :
LOGIN :

S'inscrire | Disclaimer

   EN    FR    IT 

 










Légende :    VFR   VFR Marginal   IFR   IFR Intensif   IFR Très Intensif
Visi : 
Plafond : 
>= 8 km
>= 3000ft
5 à 8 km
1000 à 3000 ft
1500m à 5 km
500 à 1000 ft
800 à 1500m
200 à 500 ft
< 800m
< 200 ft
Symboles :   Orages  Brouillard  Fortes neiges  Fortes précipitations  Vent > 20 kt
SIGMETs :   Divers  Orages  Givrage  Turbulence  Onde Orograph.  Cendres Volcan.







- Altitude de l'aérodrome : 112 ft
- Code IATA : SVQ


LEZL - Sevilla San Pablo

DERNIER METAR :
  • 142200Z 09009KT CAVOK 19/13 Q1014 NOSIG

METARs EXPIRÉS :
  • 142130Z 09006KT CAVOK 18/13 Q1015 NOSIG
  • 142100Z 05007KT CAVOK 17/14 Q1015 NOSIG
  • 142030Z 06004KT 040V110 CAVOK 17/14 Q1015 NOSIG
  • 142000Z 08005KT CAVOK 17/14 Q1015 NOSIG
  • 141930Z 07007KT CAVOK 18/14 Q1015 NOSIG
  • 141900Z 09005KT CAVOK 17/14 Q1015 NOSIG

TAF TAF LEZL
Valide du 14 à 21h jusqu'au 15 à 21h UTC


142000Z 1421/1521 07006KT CAVOK TX21/1514Z TN13/1506Z
Pas de NOTAMs connus pour ce terrain.
2 SIGMETs publiés pour la FIR Madrid (LECM) :
 
Orages noyés dans la masse
LECM SIGMET 3 VALID 142143/150000 LEVA
LECM MADRID FIR/UIR EMBD TS OBS AT 2143Z WI N3612 W00336 - N3645 W00152 - N3747 W00138 - N3741 W00248 - N3612 W00336 TOP FL360 STNR NC=
Orages noyés dans la masse
LECM SIGMET 2 VALID 142025/150000 LEVA
LECM MADRID FIR/UIR EMBD TS OBS AT 2025Z S OF LINE N3617 W00322 - N3644 W00155 TOP FL360 STNR NC=



MET'MAP, la Météo Aéronautique d'un coup d'oeil ! - Copyright ORBIFLY Décembre 2007 - Disclaimer

ORBIFLY MET'MAP TEAM :

Programmation & Développement : Alexandra Zaïnal
Conception & Développement : Baudouin d'Aumeries
Co-Programmation & Développement : Marc-Olivier Méhu
Soutien technique & logistique : Manuel Goepfert

Contact : metmap@orbifly.com




SOURCES & CREDITS :

   NOAA